This is the latest recevied weather packets stored in our database for station/object K4OAM-13. If no packets are shown the sender has not sent any weather packets the latest 10 day(s).
| Time | Temp. | Humidity | Pressure | Rain* | Wind** | Luminosity | Snow |
|---|---|---|---|---|---|---|---|
| 1777577578 | 9.44° C | 59% | 1006.2 hPa | - | - | - | - |
| 1777576994 | 10° C | 59% | 1006 hPa | - | - | - | - |
| 1777575178 | 10° C | 58% | 1006.1 hPa | - | - | - | - |
| 1777574278 | 10.56° C | 57% | 1006.2 hPa | - | - | - | - |
| 1777572478 | 10° C | 57% | 1006.8 hPa | - | - | - | - |
| 1777571578 | 10° C | 58% | 1006.8 hPa | - | - | - | - |
| 1777567978 | 9.44° C | 58% | 1007.6 hPa | - | - | - | - |
| 1777566778 | 8.89° C | 58% | 1008.1 hPa | - | - | - | - |
| 1777564994 | 8.89° C | 56% | 1008.6 hPa | - | - | - | - |
| 1777563178 | 8.89° C | 57% | 1008.5 hPa | - | - | - | - |
| 1777562594 | 8.33° C | 57% | 1008.6 hPa | - | - | - | - |
| 1777558078 | 7.22° C | 61% | 1009.1 hPa | - | - | - | - |
| 1777557794 | 7.22° C | 61% | 1009.1 hPa | - | - | - | - |
| 1777555978 | 6.67° C | 62% | 1009 hPa | - | - | - | - |
| 1777555678 | 6.67° C | 64% | 1009.1 hPa | - | - | - | - |
| 1777552994 | 5.56° C | 67% | 1009.5 hPa | - | - | - | - |
| 1777552678 | 5.56° C | 68% | 1009.5 hPa | - | - | - | - |
| 1777551778 | 5° C | 70% | 1009.5 hPa | - | - | - | - |
| 1777551478 | 5° C | 70% | 1009.5 hPa | - | - | - | - |
| 1777551178 | 5° C | 70% | 1009.6 hPa | - | - | - | - |
| 1777548478 | 5° C | 68% | 1009.6 hPa | - | - | - | - |
| 1777546994 | 5° C | 69% | 1009.6 hPa | - | - | - | - |
| 1777545778 | 5° C | 69% | 1009.7 hPa | - | - | - | - |
| 1777543694 | 5° C | 68% | 1010.1 hPa | - | - | - | - |
| 1777543078 | 5° C | 68% | 1010 hPa | - | - | - | - |
* Rain since midnight (hover to see other rain measurements)
** Current wind speed in m/s (hover to see current wind gust speed)